ETEB/QOB METAR and TAF weather

Enter ICAO airport designator
Station Type Date Time Source
ETEB METAR 2018/07/21 11:13 UTC NOAA

ETEB 211113Z AUTO 23003KT 9999 -DZ FEW006 SCT011 18/18 A2994 RMK AO2 RAE03DZB03 SLP136 $


Station Type Date Time Source
ETEB Decoded METAR 2018/07/21 11:13 UTC NOAA

Ansbach / Katterbach, Germany (ETEB) 49-19N 010-38E 476M
Jul 21, 2018 - 07:13 AM EDT / 2018.07.21 1113 UTC
Wind: from the SW (230 degrees) at 3 MPH (3 KT):0
Visibility: greater than 7 mile(s):0
Sky conditions: partly cloudy
Weather: light drizzle
Temperature: 64 F (18 C)
Dew Point: 64 F (18 C)
Relative Humidity: 100%
Pressure (altimeter): 29.94 in. Hg (1013 hPa)
ob: ETEB 211113Z AUTO 23003KT 9999 -DZ FEW006 SCT011 18/18 A2994 RMK AO2 RAE03DZB03 SLP136
cycle: 11

Station Type Date Time Source
ETEB TAF 2018/07/20 15:06 UTC NOAA

TAF
AMD ETEB 201600Z 2015/2119 VRB06KT 9999 SCT060 QNH2985INS
BECMG 2110/2111 29009KT 9000 -SHRA BKN030 QNH2984INS
TEMPO 2111/2117 VRB12G18KT 8000 -TSRA BKN020CB TX30/2015Z TN13/2104Z LAST NO
AMDS AFT 2016 NEXT 2304


Example: see airport list